createdAt,value
2018-03-21T00:00:33.233Z,30.90
2018-03-21T00:03:00.508Z,31.20
2018-03-21T00:05:27.745Z,31.45
2018-03-21T00:07:55.725Z,32.67
2018-03-21T00:10:23.024Z,31.62
2018-03-21T00:12:50.285Z,37.70
2018-03-21T00:15:17.314Z,25.55
2018-03-21T00:17:44.478Z,31.95
2018-03-21T00:20:11.773Z,30.55
2018-03-21T00:22:39.097Z,34.03
2018-03-21T00:25:06.957Z,32.35
2018-03-21T00:27:34.753Z,35.40
2018-03-21T00:30:01.954Z,37.28
2018-03-21T00:32:29.818Z,37.00
2018-03-21T00:34:57.750Z,35.95
2018-03-21T00:37:25.621Z,35.72
2018-03-21T00:39:52.875Z,32.10
2018-03-21T00:42:19.961Z,27.73
2018-03-21T00:44:47.129Z,35.33
2018-03-21T00:47:14.178Z,29.42
2018-03-21T00:49:41.432Z,36.22
2018-03-21T00:52:08.688Z,29.23
2018-03-21T00:54:35.724Z,31.08
2018-03-21T00:57:03.033Z,33.35
2018-03-21T00:59:30.095Z,32.30
2018-03-21T01:01:58.156Z,26.12
2018-03-21T01:04:26.172Z,34.20
2018-03-21T01:06:54.190Z,25.95
2018-03-21T01:09:21.308Z,27.10
2018-03-21T01:11:48.400Z,26.25
2018-03-21T01:14:16.193Z,27.25
2018-03-21T01:16:43.696Z,22.77
2018-03-21T01:19:10.686Z,28.90
2018-03-21T01:21:37.716Z,33.35
2018-03-21T01:24:04.728Z,31.92
2018-03-21T01:26:31.672Z,36.42
2018-03-21T01:28:58.660Z,37.15
2018-03-21T01:31:25.741Z,36.88
2018-03-21T01:33:52.742Z,31.05
2018-03-21T01:36:20.758Z,31.95
2018-03-21T01:38:48.568Z,32.38
2018-03-21T01:41:16.649Z,35.05
2018-03-21T01:43:43.961Z,34.30
2018-03-21T01:46:11.261Z,35.50
2018-03-21T01:48:38.324Z,35.70
2018-03-21T01:51:05.293Z,31.15
2018-03-21T01:53:32.328Z,30.20
2018-03-21T01:55:59.324Z,32.17
2018-03-21T01:58:26.281Z,25.08
2018-03-21T02:00:54.056Z,29.67
2018-03-21T02:03:21.137Z,36.03
2018-03-21T02:05:48.105Z,28.83
2018-03-21T02:08:15.060Z,29.85
2018-03-21T02:10:42.024Z,29.85
2018-03-21T02:13:09.111Z,34.25
2018-03-21T02:15:36.092Z,25.77
2018-03-21T02:18:03.169Z,28.92
2018-03-21T02:20:30.896Z,24.58
2018-03-21T02:22:57.900Z,25.12
2018-03-21T02:25:24.893Z,29.08
2018-03-21T02:27:52.136Z,23.83
2018-03-21T02:30:19.188Z,23.45
2018-03-21T02:32:46.182Z,22.77
2018-03-21T02:35:13.904Z,28.58
2018-03-21T02:37:40.869Z,25.62
2018-03-21T02:40:07.909Z,22.30
2018-03-21T02:42:34.985Z,25.30
2018-03-21T02:45:02.776Z,21.42
2018-03-21T02:47:29.781Z,21.95
2018-03-21T02:49:56.758Z,21.60
2018-03-21T02:52:23.791Z,21.73
2018-03-21T02:54:50.838Z,25.25
2018-03-21T02:57:17.853Z,24.52
2018-03-21T02:59:44.863Z,20.95
2018-03-21T03:02:12.225Z,25.67
2018-03-21T03:04:39.268Z,18.45
2018-03-21T03:07:06.272Z,27.35
2018-03-21T03:09:33.553Z,21.25
2018-03-21T03:12:00.584Z,22.33
2018-03-21T03:14:28.328Z,21.85
2018-03-21T03:16:55.525Z,19.55
2018-03-21T03:19:22.545Z,21.70
2018-03-21T03:21:49.696Z,22.30
2018-03-21T03:24:17.460Z,26.17
2018-03-21T03:26:44.488Z,24.85
2018-03-21T03:29:12.287Z,19.33
2018-03-21T03:31:39.313Z,21.02
2018-03-21T03:34:07.061Z,19.70
2018-03-21T03:36:34.037Z,20.12
2018-03-21T03:39:01.775Z,20.60
2018-03-21T03:41:29.587Z,20.77
2018-03-21T03:43:56.556Z,18.12
2018-03-21T03:46:23.538Z,21.40
2018-03-21T03:48:50.505Z,19.92
2018-03-21T03:51:17.501Z,20.92
2018-03-21T03:53:44.472Z,18.12
2018-03-21T03:56:11.472Z,21.42
2018-03-21T03:58:38.429Z,19.62
2018-03-21T04:01:05.400Z,22.45
2018-03-21T04:03:32.390Z,19.45
2018-03-21T04:05:59.357Z,25.05
2018-03-21T04:08:26.328Z,25.15
2018-03-21T04:10:54.060Z,20.10
2018-03-21T04:13:21.097Z,22.87
2018-03-21T04:15:48.112Z,20.95
2018-03-21T04:18:15.849Z,22.92
2018-03-21T04:20:42.857Z,19.77
2018-03-21T04:23:09.944Z,21.15
2018-03-21T04:25:36.897Z,20.95
2018-03-21T04:28:03.893Z,19.27
2018-03-21T04:30:30.889Z,20.75
2018-03-21T04:32:57.965Z,22.50
2018-03-21T04:35:25.688Z,20.25
2018-03-21T04:37:52.676Z,19.67
2018-03-21T04:40:19.655Z,23.20
2018-03-21T04:42:46.677Z,20.05
2018-03-21T04:45:13.681Z,20.98
2018-03-21T04:47:40.716Z,22.52
2018-03-21T04:50:07.748Z,22.55
2018-03-21T04:52:34.749Z,21.67
2018-03-21T04:55:02.557Z,19.35
2018-03-21T04:57:29.581Z,18.23
2018-03-21T04:59:56.572Z,19.62
2018-03-21T05:02:23.612Z,22.62
2018-03-21T05:04:50.639Z,19.23
2018-03-21T05:07:17.632Z,20.30
2018-03-21T05:09:44.616Z,22.35
2018-03-21T05:12:26.556Z,19.48
2018-03-21T05:14:53.561Z,22.08
2018-03-21T05:17:20.532Z,26.12
2018-03-21T05:19:47.512Z,20.67
2018-03-21T05:22:14.637Z,22.23
2018-03-21T05:24:41.620Z,25.25
2018-03-21T05:27:08.620Z,24.70
2018-03-21T05:29:35.634Z,17.48
2018-03-21T05:32:02.672Z,21.58
2018-03-21T05:34:30.384Z,23.27
2018-03-21T05:36:57.393Z,18.00
2018-03-21T05:39:24.616Z,20.17
2018-03-21T05:41:51.794Z,19.50
2018-03-21T05:44:18.837Z,25.55
2018-03-21T05:46:45.905Z,20.35
2018-03-21T05:49:13.319Z,20.62
2018-03-21T05:51:40.613Z,20.58
2018-03-21T05:54:08.501Z,27.50
2018-03-21T05:56:36.475Z,30.75
2018-03-21T05:59:03.820Z,16.23
2018-03-21T06:01:31.950Z,20.65
2018-03-21T06:03:59.124Z,18.23
2018-03-21T06:06:26.237Z,19.60
2018-03-21T06:08:53.261Z,22.27
2018-03-21T06:11:20.642Z,20.70
2018-03-21T06:13:48.577Z,18.87
2018-03-21T06:16:15.874Z,21.92
2018-03-21T06:18:43.854Z,18.10
2018-03-21T06:21:10.899Z,17.55
2018-03-21T06:23:38.778Z,21.50
2018-03-21T06:26:06.726Z,20.70
2018-03-21T06:28:34.782Z,17.35
2018-03-21T06:31:02.143Z,17.02
2018-03-21T06:33:29.237Z,22.08
2018-03-21T06:35:56.488Z,22.13
2018-03-21T06:38:24.498Z,17.42
2018-03-21T06:40:51.806Z,20.15
2018-03-21T06:43:19.774Z,18.00
2018-03-21T06:45:46.912Z,18.37
2018-03-21T06:48:13.982Z,20.48
2018-03-21T06:50:40.997Z,19.27
2018-03-21T06:53:08.057Z,18.10
2018-03-21T06:55:35.056Z,21.30
2018-03-21T06:58:02.933Z,18.15
2018-03-21T07:00:29.947Z,18.02
2018-03-21T07:02:56.952Z,25.42
2018-03-21T07:05:23.987Z,17.10
2018-03-21T07:07:51.782Z,21.33
2018-03-21T07:10:20.751Z,22.40
2018-03-21T07:12:48.883Z,16.02
2018-03-21T07:15:34.584Z,18.58
2018-03-21T07:18:02.522Z,17.15
2018-03-21T07:20:29.569Z,22.95
2018-03-21T07:22:56.852Z,16.37
2018-03-21T07:25:24.049Z,16.52
2018-03-21T07:27:51.205Z,17.95
2018-03-21T07:30:18.489Z,17.87
2018-03-21T07:32:47.748Z,15.30
2018-03-21T07:35:14.939Z,18.25
2018-03-21T07:37:42.170Z,18.90
2018-03-21T07:40:10.049Z,20.88
2018-03-21T07:42:37.945Z,15.85
2018-03-21T07:45:05.948Z,16.83
2018-03-21T07:47:33.106Z,21.42
2018-03-21T07:50:00.903Z,20.30
2018-03-21T07:52:28.182Z,15.70
2018-03-21T07:54:55.478Z,17.85
2018-03-21T07:57:22.682Z,14.32
2018-03-21T07:59:49.833Z,18.20
2018-03-21T08:02:17.032Z,17.65
2018-03-21T08:04:44.928Z,20.20
2018-03-21T08:07:12.148Z,17.40
2018-03-21T08:09:39.317Z,17.42
2018-03-21T08:12:06.653Z,23.48
2018-03-21T08:14:33.686Z,16.08
2018-03-21T08:17:00.693Z,16.17
2018-03-21T08:19:27.953Z,19.83
2018-03-21T08:21:55.195Z,20.88
2018-03-21T08:24:22.397Z,18.98
2018-03-21T08:26:49.617Z,16.33
2018-03-21T08:29:17.594Z,13.70
2018-03-21T08:31:44.792Z,18.92
2018-03-21T08:34:11.853Z,22.08
2018-03-21T08:36:38.844Z,15.57
2018-03-21T08:39:06.141Z,16.83
2018-03-21T08:41:33.234Z,15.70
2018-03-21T08:44:01.094Z,17.92
2018-03-21T08:46:28.284Z,19.95
2018-03-21T08:48:55.320Z,15.98
2018-03-21T08:51:22.312Z,18.02
2018-03-21T08:53:49.383Z,16.87
2018-03-21T08:56:16.543Z,13.77
2018-03-21T08:58:43.685Z,17.83
2018-03-21T09:01:10.986Z,19.95
2018-03-21T09:03:38.224Z,17.45
2018-03-21T09:06:05.325Z,15.65
2018-03-21T09:08:32.510Z,13.40
2018-03-21T09:10:59.573Z,16.55
2018-03-21T09:13:26.571Z,12.07
2018-03-21T09:15:54.615Z,13.35
2018-03-21T09:18:21.742Z,16.55
2018-03-21T09:20:48.975Z,11.98
2018-03-21T09:23:16.193Z,12.02
2018-03-21T09:25:43.548Z,14.73
2018-03-21T09:28:10.601Z,13.82
2018-03-21T09:30:37.862Z,13.13
2018-03-21T09:33:05.105Z,17.42
2018-03-21T09:35:32.253Z,13.73
2018-03-21T09:37:59.341Z,12.75
2018-03-21T09:40:26.620Z,14.18
2018-03-21T09:42:53.753Z,17.08
2018-03-21T09:45:20.834Z,13.00
2018-03-21T09:47:47.892Z,14.15
2018-03-21T09:50:15.060Z,13.25
2018-03-21T09:52:43.061Z,16.10
2018-03-21T09:55:10.301Z,21.30
2018-03-21T09:57:37.353Z,12.27
2018-03-21T10:00:04.726Z,14.90
2018-03-21T10:02:31.956Z,12.82
2018-03-21T10:04:58.994Z,12.93
2018-03-21T10:07:26.252Z,13.85
2018-03-21T10:09:54.250Z,12.95
2018-03-21T10:12:21.311Z,12.50
2018-03-21T10:14:49.402Z,12.75
2018-03-21T10:17:16.533Z,13.63
2018-03-21T10:19:43.731Z,14.98
2018-03-21T10:22:10.876Z,15.07
2018-03-21T10:24:38.043Z,14.90
2018-03-21T10:27:05.092Z,13.05
2018-03-21T10:29:34.330Z,14.00
2018-03-21T10:32:01.561Z,12.77
2018-03-21T10:34:28.683Z,12.33
2018-03-21T10:36:55.882Z,17.00
2018-03-21T10:39:23.126Z,13.77
2018-03-21T10:41:50.181Z,14.07
2018-03-21T10:44:18.230Z,15.97
2018-03-21T10:46:45.513Z,14.43
2018-03-21T10:49:13.312Z,13.83
2018-03-21T10:51:40.680Z,14.07
2018-03-21T10:54:07.875Z,13.87
2018-03-21T10:56:34.957Z,14.70
2018-03-21T10:59:02.126Z,15.53
2018-03-21T11:01:34.981Z,13.97
2018-03-21T11:04:03.001Z,15.20
2018-03-21T11:06:30.226Z,13.03
2018-03-21T11:08:58.137Z,14.57
2018-03-21T11:11:25.314Z,11.83
2018-03-21T11:13:52.425Z,14.37
2018-03-21T11:16:19.724Z,12.97
2018-03-21T11:18:47.689Z,11.83
2018-03-21T11:21:14.852Z,15.87
2018-03-21T11:23:42.069Z,12.43
2018-03-21T11:26:09.251Z,14.17
2018-03-21T11:28:37.052Z,13.47
2018-03-21T11:31:05.085Z,12.37
2018-03-21T11:33:32.887Z,12.27
2018-03-21T11:36:00.045Z,12.13
2018-03-21T11:38:27.249Z,11.60
2018-03-21T11:40:54.373Z,15.07
2018-03-21T11:43:21.475Z,13.90
2018-03-21T11:45:49.332Z,14.40
2018-03-21T11:48:16.353Z,14.20
2018-03-21T11:50:43.376Z,13.90
2018-03-21T11:53:10.569Z,13.37
2018-03-21T11:55:38.396Z,14.23
2018-03-21T11:58:05.398Z,13.20
2018-03-21T12:00:33.393Z,14.23
2018-03-21T12:03:01.377Z,13.47
2018-03-21T12:05:28.402Z,13.63
2018-03-21T12:07:56.429Z,13.93
2018-03-21T12:10:23.650Z,14.83
2018-03-21T12:12:50.873Z,13.33
2018-03-21T12:15:17.925Z,14.63
2018-03-21T12:17:45.154Z,16.13
2018-03-21T12:20:12.354Z,14.77
2018-03-21T12:22:39.399Z,15.10
2018-03-21T12:25:06.703Z,15.60
2018-03-21T12:27:33.925Z,14.27
2018-03-21T12:30:01.824Z,13.53
2018-03-21T12:32:29.114Z,13.60
2018-03-21T12:34:56.158Z,15.60
2018-03-21T12:37:23.337Z,13.30
2018-03-21T12:39:50.623Z,13.87
2018-03-21T12:42:17.700Z,13.97
2018-03-21T12:44:44.931Z,14.67
2018-03-21T12:47:12.018Z,14.83
2018-03-21T12:49:39.032Z,13.53
2018-03-21T12:52:06.976Z,14.07
2018-03-21T12:54:34.891Z,13.07
2018-03-21T12:57:01.962Z,13.87
2018-03-21T12:59:29.129Z,12.47
2018-03-21T13:01:56.200Z,13.77
2018-03-21T13:04:23.409Z,14.00
2018-03-21T13:06:50.630Z,13.00
2018-03-21T13:09:17.757Z,12.67
2018-03-21T13:11:45.564Z,13.60
2018-03-21T13:14:12.845Z,11.40
2018-03-21T13:16:40.833Z,11.67
2018-03-21T13:19:07.832Z,11.47
2018-03-21T13:21:34.985Z,11.07
2018-03-21T13:24:03.112Z,13.80
2018-03-21T13:26:30.209Z,10.57
2018-03-21T13:28:57.208Z,10.50
2018-03-21T13:31:24.436Z,12.20
2018-03-21T13:33:51.451Z,10.17
2018-03-21T13:36:18.604Z,8.33
2018-03-21T13:38:45.833Z,11.30
2018-03-21T13:41:13.003Z,10.23
2018-03-21T13:43:40.249Z,11.50
2018-03-21T13:46:07.376Z,11.73
2018-03-21T13:48:34.677Z,10.07
2018-03-21T13:51:02.602Z,9.60
2018-03-21T13:53:29.823Z,8.47
2018-03-21T13:55:56.968Z,9.40
2018-03-21T13:58:24.224Z,9.00
2018-03-21T14:00:52.198Z,9.80
2018-03-21T14:03:19.320Z,9.47
2018-03-21T14:05:46.514Z,9.07
2018-03-21T14:08:13.611Z,8.57
2018-03-21T14:10:40.656Z,9.43
2018-03-21T14:13:07.712Z,7.20
2018-03-21T14:15:34.885Z,6.90
2018-03-21T14:18:01.941Z,8.10
2018-03-21T14:20:28.953Z,7.77
2018-03-21T14:22:56.063Z,7.43
2018-03-21T14:25:23.026Z,8.23
2018-03-21T14:27:50.967Z,8.17
2018-03-21T14:30:18.013Z,7.23
2018-03-21T14:32:45.006Z,8.53
2018-03-21T14:35:12.193Z,6.83
2018-03-21T14:37:39.173Z,8.23
2018-03-21T14:40:06.925Z,7.80
2018-03-21T14:42:33.945Z,9.17
2018-03-21T14:45:00.920Z,8.13
2018-03-21T14:47:28.642Z,9.10
2018-03-21T14:49:55.649Z,8.80
2018-03-21T14:52:22.660Z,8.83
2018-03-21T14:54:49.665Z,9.43
2018-03-21T14:57:16.685Z,8.00
2018-03-21T14:59:43.685Z,8.17
2018-03-21T15:02:10.693Z,7.73
2018-03-21T15:04:37.704Z,8.40
2018-03-21T15:07:05.440Z,7.73
2018-03-21T15:09:33.217Z,7.57
2018-03-21T15:12:00.224Z,7.67
2018-03-21T15:14:27.280Z,6.60
2018-03-21T15:16:54.277Z,8.50
2018-03-21T15:19:22.036Z,7.00
2018-03-21T15:21:49.045Z,8.20
2018-03-21T15:24:16.043Z,7.90
2018-03-21T15:26:43.072Z,8.43
2018-03-21T15:29:10.800Z,7.97
2018-03-21T15:31:37.849Z,9.50
2018-03-21T15:34:04.900Z,8.93
2018-03-21T15:36:32.629Z,9.17
2018-03-21T15:38:59.644Z,8.80
2018-03-21T15:41:26.688Z,8.90
2018-03-21T15:43:54.404Z,8.97
2018-03-21T15:46:22.132Z,7.57
2018-03-21T15:48:49.123Z,9.37
2018-03-21T15:51:16.207Z,8.40
2018-03-21T15:53:43.149Z,8.57
2018-03-21T15:56:10.913Z,8.90
2018-03-21T15:58:37.945Z,8.87
2018-03-21T16:01:04.979Z,8.60
2018-03-21T16:03:32.148Z,10.23
2018-03-21T16:05:59.266Z,8.23
2018-03-21T16:08:26.256Z,13.20
2018-03-21T16:10:54.039Z,10.35
2018-03-21T16:13:21.089Z,11.02
2018-03-21T16:15:48.729Z,9.40
2018-03-21T16:18:16.972Z,9.05
2018-03-21T16:20:44.048Z,12.25
2018-03-21T16:23:12.098Z,14.07
2018-03-21T16:25:39.128Z,11.12
2018-03-21T16:28:06.134Z,15.00
2018-03-21T16:30:33.901Z,17.73
2018-03-21T16:33:02.040Z,12.00
2018-03-21T16:35:29.380Z,15.85
2018-03-21T16:37:56.451Z,13.05
2018-03-21T16:40:24.328Z,15.23
2018-03-21T16:42:51.401Z,14.05
2018-03-21T16:45:18.446Z,12.77
2018-03-21T16:47:45.461Z,14.07
2018-03-21T16:50:12.451Z,11.68
2018-03-21T16:52:39.705Z,12.57
2018-03-21T16:55:06.862Z,13.25
2018-03-21T16:57:33.921Z,13.38
2018-03-21T17:00:01.892Z,14.48
2018-03-21T17:02:29.166Z,16.00
2018-03-21T17:04:56.457Z,12.32
2018-03-21T17:07:23.734Z,14.80
2018-03-21T17:09:50.815Z,15.10
2018-03-21T17:12:17.933Z,13.75
2018-03-21T17:14:45.006Z,14.18
2018-03-21T17:17:12.945Z,18.10
2018-03-21T17:19:40.045Z,15.73
2018-03-21T17:22:07.165Z,15.02
2018-03-21T17:24:34.195Z,14.05
2018-03-21T17:27:01.269Z,24.10
2018-03-21T17:29:28.530Z,16.02
2018-03-21T17:31:56.582Z,13.88
2018-03-21T17:34:23.713Z,14.13
2018-03-21T17:36:50.863Z,16.52
2018-03-21T17:39:17.994Z,15.45
2018-03-21T17:41:47.252Z,13.82
2018-03-21T17:44:14.341Z,14.10
2018-03-21T17:46:41.406Z,14.23
2018-03-21T17:49:08.587Z,16.05
2018-03-21T17:51:36.576Z,16.60
2018-03-21T17:54:03.705Z,13.60
2018-03-21T17:56:31.906Z,14.57
2018-03-21T17:58:59.010Z,13.70
2018-03-21T18:01:26.085Z,15.80
2018-03-21T18:03:53.305Z,12.88
2018-03-21T18:06:20.428Z,18.92
2018-03-21T18:08:47.561Z,13.62
2018-03-21T18:11:14.754Z,13.85
2018-03-21T18:13:41.945Z,16.27
2018-03-21T18:16:09.101Z,15.88
2018-03-21T18:18:36.373Z,15.85
2018-03-21T18:21:03.417Z,15.40
2018-03-21T18:23:31.355Z,14.98
2018-03-21T18:25:58.492Z,19.98
2018-03-21T18:28:25.693Z,18.37
2018-03-21T18:30:52.893Z,18.42
2018-03-21T18:33:20.845Z,17.70
2018-03-21T18:35:47.997Z,15.98
2018-03-21T18:38:15.322Z,15.82
2018-03-21T18:40:42.466Z,15.35
2018-03-21T18:43:09.740Z,15.95
2018-03-21T18:45:36.912Z,14.07
2018-03-21T18:48:04.142Z,16.80
2018-03-21T18:50:31.374Z,16.23
2018-03-21T18:52:58.434Z,13.35
2018-03-21T18:55:25.477Z,15.00
2018-03-21T18:57:52.508Z,15.35
2018-03-21T19:00:19.541Z,14.70
2018-03-21T19:02:47.361Z,16.50
2018-03-21T19:05:14.376Z,15.43
2018-03-21T19:07:42.121Z,18.62
2018-03-21T19:10:09.419Z,24.17
2018-03-21T19:12:36.686Z,22.58
2018-03-21T19:15:03.773Z,18.08
2018-03-21T19:17:30.991Z,23.10
2018-03-21T19:19:58.219Z,21.12
2018-03-21T19:22:25.977Z,25.42
2018-03-21T19:24:54.677Z,24.60
2018-03-21T19:27:21.700Z,19.75
2018-03-21T19:29:48.702Z,21.20
2018-03-21T19:32:16.741Z,28.27
2018-03-21T19:34:43.932Z,23.60
2018-03-21T19:37:10.907Z,33.15
2018-03-21T19:39:37.945Z,35.38
2018-03-21T19:42:05.802Z,28.23
2018-03-21T19:44:32.809Z,29.10
2018-03-21T19:47:01.029Z,30.35
2018-03-21T19:49:28.487Z,22.70
2018-03-21T19:51:55.620Z,22.77
2018-03-21T19:54:23.591Z,19.35
2018-03-21T19:56:50.829Z,18.08
2018-03-21T19:59:17.924Z,21.95
2018-03-21T20:01:45.492Z,15.73
2018-03-21T20:04:13.583Z,14.23
2018-03-21T20:06:41.029Z,23.38
2018-03-21T20:09:08.845Z,14.13
2018-03-21T20:11:36.556Z,16.15
2018-03-21T20:14:04.602Z,19.25
2018-03-21T20:16:32.017Z,16.85
2018-03-21T20:18:59.229Z,19.23
2018-03-21T20:21:26.321Z,19.50
2018-03-21T20:23:54.046Z,18.15
2018-03-21T20:26:22.142Z,23.90
2018-03-21T20:28:49.454Z,23.40
2018-03-21T20:31:16.751Z,24.67
2018-03-21T20:33:43.898Z,23.25
2018-03-21T20:36:11.443Z,21.73
2018-03-21T20:38:38.761Z,19.98
2018-03-21T20:41:06.074Z,20.12
2018-03-21T20:43:33.464Z,21.70
2018-03-21T20:46:00.521Z,18.17
2018-03-21T20:48:28.596Z,17.15
2018-03-21T20:50:55.829Z,18.70
2018-03-21T20:53:24.478Z,17.98
2018-03-21T20:55:51.585Z,20.05
2018-03-21T20:58:18.649Z,19.30
2018-03-21T21:00:45.697Z,15.63
2018-03-21T21:03:12.914Z,20.50
2018-03-21T21:05:40.705Z,19.45
2018-03-21T21:08:07.730Z,22.02
2018-03-21T21:10:34.718Z,21.98
2018-03-21T21:13:01.945Z,29.65
2018-03-21T21:15:29.148Z,22.05
2018-03-21T21:17:58.534Z,22.95
2018-03-21T21:20:25.917Z,22.75
2018-03-21T21:22:53.042Z,20.85
2018-03-21T21:25:20.326Z,17.85
2018-03-21T21:27:47.441Z,19.55
2018-03-21T21:30:14.585Z,19.12
2018-03-21T21:32:41.604Z,17.65
2018-03-21T21:35:09.317Z,25.05
2018-03-21T21:37:37.296Z,23.45
2018-03-21T21:40:04.372Z,35.47
2018-03-21T21:42:31.476Z,36.65
2018-03-21T21:44:58.538Z,41.75
2018-03-21T21:47:25.777Z,49.42
2018-03-21T21:49:52.886Z,45.97
2018-03-21T21:52:19.939Z,48.60
2018-03-21T21:54:46.955Z,49.50
2018-03-21T21:57:13.965Z,43.90
2018-03-21T21:59:41.290Z,52.03
2018-03-21T22:02:08.376Z,37.03
2018-03-21T22:04:35.437Z,47.20
2018-03-21T22:07:02.478Z,53.35
2018-03-21T22:09:29.467Z,46.22
2018-03-21T22:11:56.523Z,43.13
2018-03-21T22:14:23.800Z,37.42
2018-03-21T22:16:50.872Z,38.67
2018-03-21T22:19:17.876Z,28.55
2018-03-21T22:21:44.924Z,38.38
2018-03-21T22:24:11.926Z,34.28
2018-03-21T22:26:38.978Z,29.25
2018-03-21T22:29:06.085Z,29.02
2018-03-21T22:31:33.825Z,27.87
2018-03-21T22:34:01.547Z,22.05
2018-03-21T22:36:28.572Z,19.70
2018-03-21T22:38:55.540Z,21.67
2018-03-21T22:41:22.532Z,26.45
2018-03-21T22:43:50.325Z,23.55
2018-03-21T22:46:17.300Z,23.60
2018-03-21T22:48:44.301Z,23.73
2018-03-21T22:51:11.309Z,32.45
2018-03-21T22:53:38.412Z,28.85
2018-03-21T22:56:05.386Z,25.62
2018-03-21T22:58:32.360Z,21.92
2018-03-21T23:00:59.413Z,15.05
2018-03-21T23:03:26.480Z,17.73
2018-03-21T23:05:53.464Z,18.73
2018-03-21T23:08:20.481Z,24.55
2018-03-21T23:10:47.465Z,24.12
2018-03-21T23:13:14.477Z,22.17
2018-03-21T23:15:41.492Z,23.95
2018-03-21T23:18:08.473Z,31.15
2018-03-21T23:20:36.204Z,24.37
2018-03-21T23:23:03.261Z,19.08
2018-03-21T23:25:30.981Z,20.15
2018-03-21T23:27:57.957Z,19.52
2018-03-21T23:30:25.676Z,14.98
2018-03-21T23:32:53.421Z,17.70
2018-03-21T23:35:21.145Z,21.40
2018-03-21T23:37:48.157Z,27.20
2018-03-21T23:40:15.141Z,27.10
2018-03-21T23:42:42.118Z,30.40
2018-03-21T23:45:09.137Z,24.23
2018-03-21T23:47:36.103Z,22.52
2018-03-21T23:50:03.133Z,18.08
2018-03-21T23:52:30.956Z,24.42
2018-03-21T23:54:57.958Z,20.77
2018-03-21T23:57:25.759Z,18.60
2018-03-21T23:59:52.731Z,18.45
